createdAt,value
2018-04-25T00:00:07.053Z,100419.70
2018-04-25T00:03:10.397Z,100423.59
2018-04-25T00:06:14.479Z,100419.66
2018-04-25T00:09:17.799Z,100415.77
2018-04-25T00:12:21.898Z,100406.59
2018-04-25T00:15:26.714Z,100397.05
2018-04-25T00:18:30.280Z,100393.06
2018-04-25T00:21:33.586Z,100389.13
2018-04-25T00:24:36.906Z,100393.50
2018-04-25T00:27:40.236Z,100383.18
2018-04-25T00:30:43.607Z,100377.09
2018-04-25T00:33:46.929Z,100373.69
2018-04-25T00:36:50.228Z,100356.76
2018-04-25T00:39:53.559Z,100354.98
2018-04-25T00:42:56.902Z,100345.34
2018-04-25T00:46:00.359Z,100336.70
2018-04-25T00:49:03.704Z,100321.51
2018-04-25T00:52:07.100Z,100314.22
2018-04-25T00:55:10.411Z,100309.42
2018-04-25T00:58:14.621Z,100304.72
2018-04-25T01:01:19.000Z,100299.54
2018-04-25T01:04:22.455Z,100296.91
2018-04-25T01:07:25.754Z,100299.49
2018-04-25T01:10:29.089Z,100294.69
2018-04-25T01:13:33.257Z,100281.70
2018-04-25T01:16:36.587Z,100267.72
2018-04-25T01:19:40.659Z,100260.33
2018-04-25T01:22:54.793Z,100251.28
2018-04-25T01:26:06.518Z,100238.28
2018-04-25T01:29:09.918Z,100231.72
2018-04-25T01:32:13.216Z,100233.82
2018-04-25T01:35:16.606Z,100219.59
2018-04-25T01:38:19.910Z,100214.89
2018-04-25T01:41:23.318Z,100213.17
2018-04-25T01:44:28.236Z,100201.53
2018-04-25T01:47:36.022Z,100197.98
2018-04-25T01:50:39.344Z,100184.27
2018-04-25T01:54:00.650Z,100171.58
2018-04-25T01:57:21.885Z,100155.10
2018-04-25T02:00:43.299Z,100146.05
2018-04-25T02:03:56.913Z,100143.45
2018-04-25T02:07:00.354Z,100148.54
2018-04-25T02:10:03.670Z,100144.75
2018-04-25T02:13:07.003Z,100145.56
2018-04-25T02:16:10.306Z,100126.62
2018-04-25T02:19:13.639Z,100114.56
2018-04-25T02:22:17.041Z,100088.56
2018-04-25T02:25:20.436Z,100081.31
2018-04-25T02:28:23.732Z,100067.52
2018-04-25T02:31:27.142Z,100070.61
2018-04-25T02:34:30.539Z,100061.98
2018-04-25T02:37:33.870Z,100052.50
2018-04-25T02:40:37.180Z,100045.81
2018-04-25T02:43:41.362Z,100039.81
2018-04-25T02:46:44.745Z,100025.98
2018-04-25T02:49:48.170Z,100023.19
2018-04-25T02:52:51.557Z,100014.82
2018-04-25T02:55:54.882Z,100005.09
2018-04-25T02:58:58.326Z,99993.97
2018-04-25T03:02:03.100Z,99998.02
2018-04-25T03:05:06.489Z,99981.16
2018-04-25T03:08:09.880Z,99969.19
2018-04-25T03:11:13.188Z,99965.00
2018-04-25T03:14:16.685Z,99965.47
2018-04-25T03:17:20.082Z,99950.48
2018-04-25T03:20:23.409Z,99940.53
2018-04-25T03:23:26.795Z,99924.89
2018-04-25T03:26:30.178Z,99919.59
2018-04-25T03:29:33.472Z,99906.20
2018-04-25T03:32:36.784Z,99902.52
2018-04-25T03:35:40.080Z,99897.91
2018-04-25T03:38:43.468Z,99893.09
2018-04-25T03:41:46.878Z,99873.91
2018-04-25T03:44:50.210Z,99863.28
2018-04-25T03:47:54.285Z,99856.77
2018-04-25T03:50:57.685Z,99856.96
2018-04-25T03:54:00.986Z,99845.82
2018-04-25T03:57:04.313Z,99835.05
2018-04-25T04:00:07.612Z,99833.82
2018-04-25T04:03:10.933Z,99833.72
2018-04-25T04:06:14.993Z,99825.30
2018-04-25T04:09:18.308Z,99818.86
2018-04-25T04:12:21.692Z,99816.70
2018-04-25T04:15:25.009Z,99814.78
2018-04-25T04:18:29.761Z,99798.95
2018-04-25T04:21:33.942Z,99797.27
2018-04-25T04:24:37.249Z,99789.11
2018-04-25T04:27:40.585Z,99783.80
2018-04-25T04:30:44.761Z,99793.48
2018-04-25T04:33:48.149Z,99795.87
2018-04-25T04:36:51.570Z,99796.86
2018-04-25T04:39:54.953Z,99785.55
2018-04-25T04:42:58.257Z,99782.36
2018-04-25T04:46:02.070Z,99790.03
2018-04-25T04:49:05.378Z,99775.34
2018-04-25T04:52:08.753Z,99778.72
2018-04-25T04:55:12.066Z,99780.84
2018-04-25T04:58:15.458Z,99776.02
2018-04-25T05:01:18.975Z,99772.09
2018-04-25T05:04:22.362Z,99750.45
2018-04-25T05:07:25.765Z,99751.31
2018-04-25T05:10:29.086Z,99736.31
2018-04-25T05:13:32.390Z,99732.38
2018-04-25T05:16:35.861Z,99737.88
2018-04-25T05:19:39.157Z,99740.53
2018-04-25T05:22:42.477Z,99731.55
2018-04-25T05:25:45.858Z,99727.69
2018-04-25T05:28:49.250Z,99722.52
2018-04-25T05:31:52.553Z,99713.47
2018-04-25T05:34:55.877Z,99717.00
2018-04-25T05:37:59.271Z,99707.48
2018-04-25T05:41:02.611Z,99707.95
2018-04-25T05:44:05.918Z,99704.38
2018-04-25T05:47:09.246Z,99704.55
2018-04-25T05:50:12.546Z,99713.64
2018-04-25T05:53:16.007Z,99717.17
2018-04-25T05:56:19.357Z,99717.66
2018-04-25T05:59:22.774Z,99704.85
2018-04-25T06:02:26.073Z,99704.94
2018-04-25T06:05:29.434Z,99704.45
2018-04-25T06:08:32.854Z,99700.19
2018-04-25T06:11:36.940Z,99704.07
2018-04-25T06:14:40.245Z,99703.73
2018-04-25T06:17:43.574Z,99703.76
2018-04-25T06:20:46.881Z,99701.66
2018-04-25T06:23:50.208Z,99719.31
2018-04-25T06:26:53.514Z,99723.66
2018-04-25T06:29:56.866Z,99702.90
2018-04-25T06:33:00.246Z,99706.68
2018-04-25T06:36:03.642Z,99705.81
2018-04-25T06:39:07.037Z,99716.17
2018-04-25T06:42:10.348Z,99713.63
2018-04-25T06:45:13.658Z,99711.06
2018-04-25T06:48:16.995Z,99715.38
2018-04-25T06:51:20.296Z,99700.28
2018-04-25T06:54:23.616Z,99718.36
2018-04-25T06:57:26.942Z,99742.47
2018-04-25T07:00:30.283Z,99754.06
2018-04-25T07:03:33.628Z,99747.24
2018-04-25T07:06:36.947Z,99736.55
2018-04-25T07:09:40.334Z,99740.53
2018-04-25T07:12:43.668Z,99759.50
2018-04-25T07:15:47.738Z,99762.49
2018-04-25T07:18:51.066Z,99748.30
2018-04-25T07:21:54.439Z,99749.33
2018-04-25T07:24:57.796Z,99748.84
2018-04-25T07:28:01.094Z,99761.48
2018-04-25T07:31:04.433Z,99780.87
2018-04-25T07:34:07.935Z,99782.59
2018-04-25T07:37:11.329Z,99798.57
2018-04-25T07:40:15.362Z,99798.62
2018-04-25T07:43:18.693Z,99811.97
2018-04-25T07:46:22.890Z,99818.78
2018-04-25T07:49:26.337Z,99820.52
2018-04-25T07:52:29.668Z,99821.47
2018-04-25T07:55:32.996Z,99828.71
2018-04-25T07:58:37.094Z,99836.61
2018-04-25T08:01:40.422Z,99851.25
2018-04-25T08:04:44.556Z,99854.70
2018-04-25T08:07:47.901Z,99863.20
2018-04-25T08:10:51.197Z,99879.27
2018-04-25T08:14:12.349Z,99882.31
2018-04-25T08:17:34.201Z,99887.37
2018-04-25T08:24:21.910Z,99897.55
2018-04-25T08:27:25.318Z,99906.22
2018-04-25T08:30:28.625Z,99918.39
2018-04-25T08:33:31.960Z,99929.61
2018-04-25T08:36:35.263Z,99924.11
2018-04-25T08:39:38.693Z,99928.45
2018-04-25T08:42:41.993Z,99942.23
2018-04-25T08:45:45.322Z,99942.80
2018-04-25T08:48:48.706Z,99945.98
2018-04-25T08:51:52.162Z,99953.41
2018-04-25T08:54:55.489Z,99967.33
2018-04-25T08:57:58.913Z,99974.05
2018-04-25T09:01:02.301Z,99969.30
2018-04-25T09:04:05.648Z,99973.50
2018-04-25T09:07:08.991Z,99987.65
2018-04-25T09:10:12.316Z,99991.81
2018-04-25T09:13:15.780Z,100003.40
2018-04-25T09:16:19.204Z,100010.97
2018-04-25T09:19:22.650Z,100014.53
2018-04-25T09:22:25.976Z,100022.41
2018-04-25T09:25:29.455Z,100029.23
2018-04-25T09:28:32.855Z,100045.28
2018-04-25T09:31:36.178Z,100039.73
2018-04-25T09:34:39.519Z,100041.09
2018-04-25T09:37:42.840Z,100053.72
2018-04-25T09:40:46.996Z,100056.43
2018-04-25T09:43:50.318Z,100060.84
2018-04-25T09:46:53.730Z,100067.80
2018-04-25T09:49:57.053Z,100076.89
2018-04-25T09:53:01.242Z,100088.21
2018-04-25T09:56:04.679Z,100096.84
2018-04-25T09:59:08.129Z,100091.23
2018-04-25T10:05:53.790Z,100122.52
2018-04-25T10:08:57.258Z,100128.15
2018-04-25T10:12:02.282Z,100142.47
2018-04-25T10:15:05.600Z,100148.94
2018-04-25T10:18:08.981Z,100156.25
2018-04-25T10:21:12.314Z,100153.13
2018-04-25T10:24:16.445Z,100154.81
2018-04-25T10:27:19.762Z,100161.69
2018-04-25T10:30:23.190Z,100173.88
2018-04-25T10:33:26.504Z,100187.03
2018-04-25T10:36:29.924Z,100200.27
2018-04-25T10:39:34.164Z,100209.41
2018-04-25T10:42:37.600Z,100217.65
2018-04-25T10:45:41.068Z,100228.50
2018-04-25T10:48:44.622Z,100230.27
2018-04-25T10:51:47.954Z,100233.74
2018-04-25T10:54:52.062Z,100231.12
2018-04-25T10:57:56.242Z,100241.05
2018-04-25T11:00:59.578Z,100236.72
2018-04-25T11:04:03.669Z,100243.28
2018-04-25T11:07:07.069Z,100248.93
2018-04-25T11:10:10.380Z,100255.38
2018-04-25T11:13:14.006Z,100268.27
2018-04-25T11:16:18.323Z,100267.23
2018-04-25T11:19:22.426Z,100274.42
2018-04-25T11:22:25.741Z,100272.43
2018-04-25T11:25:29.905Z,100278.69
2018-04-25T11:28:33.318Z,100288.25
2018-04-25T11:31:36.716Z,100290.08
2018-04-25T11:34:40.935Z,100305.88
2018-04-25T11:37:44.276Z,100314.53
2018-04-25T11:40:48.454Z,100311.42
2018-04-25T11:43:51.788Z,100324.83
2018-04-25T11:46:55.856Z,100320.80
2018-04-25T11:49:59.196Z,100345.81
2018-04-25T11:53:02.565Z,100335.97
2018-04-25T11:56:06.021Z,100338.70
2018-04-25T11:59:09.331Z,100336.67
2018-04-25T12:02:12.667Z,100338.98
2018-04-25T12:05:16.049Z,100344.19
2018-04-25T12:08:19.380Z,100357.19
2018-04-25T12:11:22.718Z,100356.70
2018-04-25T12:14:26.189Z,100367.49
2018-04-25T12:17:29.554Z,100369.50
2018-04-25T12:20:32.906Z,100371.58
2018-04-25T12:23:37.082Z,100375.77
2018-04-25T12:26:40.497Z,100382.82
2018-04-25T12:29:43.840Z,100386.03
2018-04-25T12:32:48.508Z,100387.09
2018-04-25T12:35:51.931Z,100399.02
2018-04-25T12:38:55.302Z,100398.61
2018-04-25T12:41:58.616Z,100407.15
2018-04-25T12:45:03.482Z,100404.27
2018-04-25T12:48:07.584Z,100407.15
2018-04-25T12:51:10.948Z,100418.98
2018-04-25T12:54:15.369Z,100416.20
2018-04-25T12:57:18.769Z,100424.61
2018-04-25T13:00:22.090Z,100428.58
2018-04-25T13:03:25.534Z,100433.78
2018-04-25T13:06:28.853Z,100432.51
2018-04-25T13:09:32.269Z,100448.06
2018-04-25T13:12:35.602Z,100446.92
2018-04-25T13:15:38.930Z,100448.91
2018-04-25T13:18:42.233Z,100456.30
2018-04-25T13:21:45.566Z,100454.06
2018-04-25T13:24:48.882Z,100461.27
2018-04-25T13:27:52.239Z,100463.03
2018-04-25T13:30:55.720Z,100462.69
2018-04-25T13:33:59.147Z,100469.77
2018-04-25T13:37:02.469Z,100465.99
2018-04-25T13:40:05.812Z,100467.45
2018-04-25T13:43:10.629Z,100464.50
2018-04-25T13:46:13.973Z,100474.72
2018-04-25T13:49:17.320Z,100479.33
2018-04-25T13:52:21.554Z,100481.39
2018-04-25T13:55:26.386Z,100479.84
2018-04-25T13:58:30.573Z,100478.91
2018-04-25T14:01:33.907Z,100492.26
2018-04-25T14:04:38.087Z,100490.55
2018-04-25T14:07:41.482Z,100481.55
2018-04-25T14:10:44.837Z,100486.08
2018-04-25T14:13:48.154Z,100485.19
2018-04-25T14:16:51.586Z,100507.17
2018-04-25T14:19:54.981Z,100499.31
2018-04-25T14:22:58.329Z,100497.41
2018-04-25T14:26:01.685Z,100495.17
2018-04-25T14:29:06.547Z,100512.02
2018-04-25T14:32:10.628Z,100503.70
2018-04-25T14:35:13.962Z,100509.20
2018-04-25T14:38:18.029Z,100510.86
2018-04-25T14:41:22.225Z,100518.37
2018-04-25T14:44:25.574Z,100510.83
2018-04-25T14:47:28.922Z,100525.69
2018-04-25T14:50:32.254Z,100529.61
2018-04-25T14:53:35.658Z,100531.27
2018-04-25T14:56:39.075Z,100541.16
2018-04-25T14:59:43.178Z,100542.27
2018-04-25T15:02:46.935Z,100552.40
2018-04-25T15:05:50.284Z,100549.80
2018-04-25T15:08:53.665Z,100563.23
2018-04-25T15:11:57.012Z,100554.88
2018-04-25T15:15:01.163Z,100557.00
2018-04-25T15:18:04.517Z,100554.30
2018-04-25T15:21:07.814Z,100559.61
2018-04-25T15:24:11.197Z,100562.59
2018-04-25T15:27:14.584Z,100558.87
2018-04-25T15:30:17.931Z,100556.18
2018-04-25T15:33:22.107Z,100569.59
2018-04-25T15:36:25.463Z,100553.09
2018-04-25T15:39:28.770Z,100565.03
2018-04-25T15:42:32.219Z,100568.53
2018-04-25T15:45:35.527Z,100576.55
2018-04-25T15:48:38.878Z,100571.17
2018-04-25T15:51:42.261Z,100571.91
2018-04-25T15:54:45.703Z,100570.57
2018-04-25T15:57:49.014Z,100574.80
2018-04-25T16:00:52.408Z,100582.43
2018-04-25T16:03:55.796Z,100583.00
2018-04-25T16:06:59.157Z,100581.66
2018-04-25T16:10:02.469Z,100573.70
2018-04-25T16:13:05.923Z,100583.38
2018-04-25T16:16:10.895Z,100575.97
2018-04-25T16:19:14.236Z,100573.41
2018-04-25T16:22:17.647Z,100574.93
2018-04-25T16:25:21.033Z,100572.81
2018-04-25T16:28:24.330Z,100570.08
2018-04-25T16:31:27.736Z,100561.99
2018-04-25T16:34:31.029Z,100564.07
2018-04-25T16:37:34.368Z,100562.50
2018-04-25T16:40:38.462Z,100553.67
2018-04-25T16:43:41.901Z,100559.95
2018-04-25T16:46:45.306Z,100550.01
2018-04-25T16:49:48.752Z,100549.66
2018-04-25T16:52:52.161Z,100547.67
2018-04-25T16:55:55.541Z,100543.60
2018-04-25T16:58:58.958Z,100539.83
2018-04-25T17:02:03.071Z,100532.09
2018-04-25T17:05:06.472Z,100530.47
2018-04-25T17:08:09.805Z,100533.62
2018-04-25T17:11:13.970Z,100527.79
2018-04-25T17:14:17.309Z,100526.06
2018-04-25T17:17:20.702Z,100520.25
2018-04-25T17:20:24.060Z,100515.83
2018-04-25T17:23:27.493Z,100518.13
2018-04-25T17:26:30.866Z,100516.42
2018-04-25T17:29:34.167Z,100517.85
2018-04-25T17:32:37.512Z,100515.72
2018-04-25T17:35:41.582Z,100521.14
2018-04-25T17:38:44.993Z,100526.48
2018-04-25T17:41:48.401Z,100520.62
2018-04-25T17:44:51.725Z,100512.53
2018-04-25T17:47:56.663Z,100506.15
2018-04-25T17:51:00.773Z,100511.12
2018-04-25T17:54:05.862Z,100510.86
2018-04-25T17:57:10.605Z,100509.91
2018-04-25T18:00:15.422Z,100511.37
2018-04-25T18:03:20.450Z,100504.50
2018-04-25T18:06:25.099Z,100510.08
2018-04-25T18:09:29.877Z,100510.47
2018-04-25T18:12:35.167Z,100510.56
2018-04-25T18:15:39.885Z,100508.79
2018-04-25T18:18:43.192Z,100513.92
2018-04-25T18:21:48.181Z,100504.80
2018-04-25T18:24:52.976Z,100505.80
2018-04-25T18:27:57.624Z,100512.25
2018-04-25T18:31:02.078Z,100505.23
2018-04-25T18:34:07.782Z,100503.28
2018-04-25T18:37:12.721Z,100505.88
2018-04-25T18:40:17.379Z,100511.37
2018-04-25T18:43:21.853Z,100520.77
2018-04-25T18:46:26.458Z,100520.76
2018-04-25T18:49:30.826Z,100511.20
2018-04-25T18:52:34.592Z,100512.06
2018-04-25T18:55:39.330Z,100513.17
2018-04-25T18:58:43.011Z,100515.20
2018-04-25T19:01:46.530Z,100517.84
2018-04-25T19:04:50.223Z,100513.98
2018-04-25T19:07:53.703Z,100519.27
2018-04-25T19:10:57.256Z,100516.59
2018-04-25T19:14:00.762Z,100519.14
2018-04-25T19:17:04.420Z,100522.60
2018-04-25T19:20:08.020Z,100521.39
2018-04-25T19:23:11.404Z,100522.05
2018-04-25T19:26:14.971Z,100527.58
2018-04-25T19:29:18.694Z,100522.97
2018-04-25T19:32:22.284Z,100525.42
2018-04-25T19:35:25.960Z,100520.62
2018-04-25T19:38:29.391Z,100516.86
2018-04-25T19:41:32.889Z,100523.30
2018-04-25T19:44:36.429Z,100527.49
2018-04-25T19:47:39.939Z,100528.40
2018-04-25T19:50:43.660Z,100523.45
2018-04-25T19:53:47.439Z,100522.98
2018-04-25T19:56:51.006Z,100526.39
2018-04-25T19:59:54.545Z,100529.90
2018-04-25T20:02:58.216Z,100519.47
2018-04-25T20:06:02.348Z,100521.92
2018-04-25T20:09:05.924Z,100518.32
2018-04-25T20:12:10.338Z,100512.17
2018-04-25T20:15:13.964Z,100514.38
2018-04-25T20:18:19.588Z,100512.17
2018-04-25T20:21:24.195Z,100515.68
2018-04-25T20:24:29.341Z,100509.67
2018-04-25T20:27:34.084Z,100507.80
2018-04-25T20:30:39.051Z,100511.92
2018-04-25T20:33:44.850Z,100504.05
2018-04-25T20:36:49.720Z,100499.24
2018-04-25T20:39:54.559Z,100498.86
2018-04-25T20:42:58.921Z,100500.97
2018-04-25T20:46:03.699Z,100496.55
2018-04-25T20:49:09.993Z,100496.38
2018-04-25T20:52:15.073Z,100487.11
2018-04-25T20:55:19.831Z,100491.80
2018-04-25T20:58:24.420Z,100496.66
2018-04-25T21:01:29.356Z,100503.25
2018-04-25T21:04:33.972Z,100499.47
2018-04-25T21:07:38.891Z,100496.10
2018-04-25T21:10:44.403Z,100493.14
2018-04-25T21:13:49.398Z,100494.49
2018-04-25T21:16:55.072Z,100502.75
2018-04-25T21:19:59.842Z,100500.20
2018-04-25T21:23:04.332Z,100500.14
2018-04-25T21:26:09.188Z,100509.23
2018-04-25T21:29:13.493Z,100503.14
2018-04-25T21:32:18.593Z,100507.23
2018-04-25T21:35:24.158Z,100508.42
2018-04-25T21:38:28.770Z,100511.70
2018-04-25T21:41:34.180Z,100519.74
2018-04-25T21:44:39.123Z,100521.40
2018-04-25T21:47:44.030Z,100524.38
2018-04-25T21:50:48.372Z,100518.87
2018-04-25T21:53:53.242Z,100521.34
2018-04-25T21:56:58.818Z,100516.61
2018-04-25T22:00:03.138Z,100512.35
2018-04-25T22:03:08.047Z,100513.38
2018-04-25T22:06:13.616Z,100513.70
2018-04-25T22:09:19.147Z,100525.34
2018-04-25T22:12:23.797Z,100520.59
2018-04-25T22:15:28.731Z,100525.29
2018-04-25T22:18:34.199Z,100527.02
2018-04-25T22:21:39.046Z,100530.80
2018-04-25T22:24:43.734Z,100529.59
2018-04-25T22:27:49.444Z,100537.36
2018-04-25T22:30:54.047Z,100536.51
2018-04-25T22:33:58.870Z,100542.49
2018-04-25T22:37:03.738Z,100537.30
2018-04-25T22:40:09.430Z,100537.81
2018-04-25T22:43:15.237Z,100542.17
2018-04-25T22:46:20.147Z,100546.00
2018-04-25T22:49:23.446Z,100544.76
2018-04-25T22:52:26.768Z,100546.45
2018-04-25T22:55:30.088Z,100549.39
2018-04-25T22:58:33.564Z,100549.08
2018-04-25T23:01:36.886Z,100547.89
2018-04-25T23:04:40.208Z,100550.88
2018-04-25T23:07:43.584Z,100547.80
2018-04-25T23:10:46.972Z,100545.16
2018-04-25T23:13:50.272Z,100545.95
2018-04-25T23:16:53.592Z,100546.14
2018-04-25T23:19:56.918Z,100540.16
2018-04-25T23:23:01.028Z,100536.98
2018-04-25T23:26:05.094Z,100542.46
2018-04-25T23:29:08.425Z,100542.77
2018-04-25T23:32:11.805Z,100552.16
2018-04-25T23:35:15.200Z,100553.31
2018-04-25T23:38:18.593Z,100548.06
2018-04-25T23:41:21.916Z,100543.09
2018-04-25T23:44:25.298Z,100554.45
2018-04-25T23:47:28.704Z,100555.56
2018-04-25T23:50:32.000Z,100547.76
2018-04-25T23:53:35.346Z,100553.17
2018-04-25T23:56:39.422Z,100548.44
2018-04-25T23:59:42.760Z,100546.70
